createdAt,value
2022-12-09T00:00:38.277Z,100.00
2022-12-09T00:03:26.473Z,100.00
2022-12-09T00:06:17.934Z,100.00
2022-12-09T00:09:06.300Z,100.00
2022-12-09T00:11:55.728Z,100.00
2022-12-09T00:14:43.838Z,100.00
2022-12-09T00:17:32.211Z,100.00
2022-12-09T00:20:20.267Z,100.00
2022-12-09T00:23:08.256Z,100.00
2022-12-09T00:25:57.915Z,100.00
2022-12-09T00:28:47.936Z,100.00
2022-12-09T00:31:38.448Z,100.00
2022-12-09T00:34:26.508Z,100.00
2022-12-09T00:37:14.480Z,100.00
2022-12-09T00:40:02.435Z,100.00
2022-12-09T00:42:50.527Z,100.00
2022-12-09T00:45:39.856Z,100.00
2022-12-09T00:48:28.341Z,100.00
2022-12-09T00:51:18.680Z,100.00
2022-12-09T00:54:06.977Z,100.00
2022-12-09T00:56:57.101Z,100.00
2022-12-09T00:59:45.101Z,100.00
2022-12-09T01:02:34.593Z,100.00
2022-12-09T01:05:22.610Z,100.00
2022-12-09T01:08:12.323Z,100.00
2022-12-09T01:11:00.326Z,100.00
2022-12-09T01:13:49.397Z,100.00
2022-12-09T01:16:37.701Z,100.00
2022-12-09T01:19:27.108Z,100.00
2022-12-09T01:22:15.055Z,100.00
2022-12-09T01:25:03.654Z,100.00
2022-12-09T01:27:51.554Z,100.00
2022-12-09T01:30:39.616Z,100.00
2022-12-09T01:33:29.456Z,100.00
2022-12-09T01:36:21.497Z,100.00
2022-12-09T01:39:10.986Z,100.00
2022-12-09T01:41:59.220Z,100.00
2022-12-09T01:45:20.720Z,100.00
2022-12-09T01:48:14.404Z,100.00
2022-12-09T01:51:11.386Z,100.00
2022-12-09T01:54:00.906Z,100.00
2022-12-09T01:56:49.022Z,100.00
2022-12-09T01:59:37.819Z,100.00
2022-12-09T02:02:28.652Z,100.00
2022-12-09T02:05:17.444Z,100.00
2022-12-09T02:08:13.984Z,100.00
2022-12-09T02:11:15.480Z,100.00
2022-12-09T02:14:15.271Z,100.00
2022-12-09T02:17:22.200Z,100.00
2022-12-09T02:20:19.972Z,100.00
2022-12-09T02:23:17.061Z,100.00
2022-12-09T02:26:17.462Z,100.00
2022-12-09T02:29:34.550Z,100.00
2022-12-09T02:32:59.346Z,100.00
2022-12-09T02:35:56.079Z,100.00
2022-12-09T02:38:45.814Z,100.00
2022-12-09T02:41:36.752Z,100.00
2022-12-09T02:44:27.890Z,100.00
2022-12-09T02:47:19.709Z,100.00
2022-12-09T02:50:13.218Z,100.00
2022-12-09T02:53:07.686Z,100.00
2022-12-09T02:55:57.259Z,100.00
2022-12-09T02:58:46.383Z,100.00
2022-12-09T03:01:48.353Z,100.00
2022-12-09T03:04:42.765Z,100.00
2022-12-09T03:08:08.081Z,100.00
2022-12-09T03:11:01.133Z,100.00
2022-12-09T03:13:56.642Z,100.00
2022-12-09T03:16:50.894Z,100.00
2022-12-09T03:19:44.221Z,100.00
2022-12-09T03:22:35.593Z,100.00
2022-12-09T03:25:29.194Z,100.00
2022-12-09T03:28:24.424Z,100.00
2022-12-09T03:31:17.273Z,100.00
2022-12-09T03:34:08.637Z,100.00
2022-12-09T03:36:59.484Z,100.00
2022-12-09T03:39:48.882Z,100.00
2022-12-09T03:42:43.792Z,100.00
2022-12-09T03:45:33.270Z,100.00
2022-12-09T03:48:22.378Z,100.00
2022-12-09T03:51:15.396Z,100.00
2022-12-09T03:54:09.913Z,100.00
2022-12-09T03:56:59.450Z,100.00
2022-12-09T03:59:54.066Z,100.00
2022-12-09T04:02:42.080Z,100.00
2022-12-09T04:05:30.136Z,100.00
2022-12-09T04:08:18.234Z,100.00
2022-12-09T04:11:06.914Z,100.00
2022-12-09T04:13:54.888Z,100.00
2022-12-09T04:16:44.644Z,100.00
2022-12-09T04:19:32.816Z,100.00
2022-12-09T04:22:21.440Z,100.00
2022-12-09T04:25:10.449Z,100.00
2022-12-09T04:27:58.415Z,100.00
2022-12-09T04:30:46.941Z,100.00
2022-12-09T04:33:37.015Z,100.00
2022-12-09T04:36:25.113Z,100.00
2022-12-09T04:39:13.385Z,100.00
2022-12-09T04:42:01.350Z,100.00
2022-12-09T04:44:49.614Z,100.00
2022-12-09T04:47:37.702Z,100.00
2022-12-09T04:50:28.010Z,100.00
2022-12-09T04:53:16.280Z,100.00
2022-12-09T04:56:07.228Z,100.00
2022-12-09T04:58:55.196Z,100.00
2022-12-09T05:01:44.422Z,100.00
2022-12-09T05:04:32.859Z,100.00
2022-12-09T05:07:23.419Z,100.00
2022-12-09T05:10:12.743Z,100.00
2022-12-09T05:13:01.032Z,100.00
2022-12-09T05:15:49.243Z,100.00
2022-12-09T05:18:38.135Z,100.00
2022-12-09T05:21:26.467Z,100.00
2022-12-09T05:24:16.111Z,100.00
2022-12-09T05:27:04.891Z,100.00
2022-12-09T05:29:53.175Z,100.00
2022-12-09T05:32:41.512Z,100.00
2022-12-09T05:35:29.934Z,100.00
2022-12-09T05:38:18.482Z,100.00
2022-12-09T05:41:09.466Z,100.00
2022-12-09T05:43:57.764Z,100.00
2022-12-09T05:46:46.163Z,100.00
2022-12-09T05:49:34.710Z,100.00
2022-12-09T05:52:22.851Z,100.00
2022-12-09T05:55:11.979Z,100.00
2022-12-09T05:58:01.527Z,100.00
2022-12-09T06:00:50.200Z,100.00
2022-12-09T06:03:38.924Z,100.00
2022-12-09T06:06:30.088Z,100.00
2022-12-09T06:09:18.817Z,100.00
2022-12-09T06:12:07.817Z,100.00
2022-12-09T06:14:57.270Z,100.00
2022-12-09T06:17:45.411Z,100.00
2022-12-09T06:20:33.714Z,100.00
2022-12-09T06:23:21.927Z,100.00
2022-12-09T06:26:17.147Z,100.00
2022-12-09T06:29:05.403Z,100.00
2022-12-09T06:31:54.931Z,100.00
2022-12-09T06:34:43.187Z,100.00
2022-12-09T06:37:32.569Z,100.00
2022-12-09T06:40:22.096Z,100.00
2022-12-09T06:43:10.710Z,100.00
2022-12-09T06:45:58.893Z,100.00
2022-12-09T06:48:48.958Z,100.00
2022-12-09T06:51:37.521Z,100.00
2022-12-09T06:54:25.998Z,100.00
2022-12-09T06:57:13.940Z,100.00
2022-12-09T07:00:02.753Z,100.00
2022-12-09T07:02:51.089Z,100.00
2022-12-09T07:05:20.609Z,100.00
2022-12-09T07:07:51.514Z,100.00
2022-12-09T07:10:20.203Z,100.00
2022-12-09T07:12:48.377Z,100.00
2022-12-09T07:15:16.499Z,100.00
2022-12-09T07:17:44.656Z,100.00
2022-12-09T07:20:13.379Z,100.00
2022-12-09T07:22:42.547Z,100.00
2022-12-09T07:25:11.183Z,100.00
2022-12-09T07:27:40.386Z,100.00
2022-12-09T07:30:09.578Z,100.00
2022-12-09T07:32:37.819Z,100.00
2022-12-09T07:35:06.448Z,100.00
2022-12-09T07:37:34.918Z,100.00
2022-12-09T07:40:04.089Z,100.00
2022-12-09T07:42:31.891Z,100.00
2022-12-09T07:45:04.547Z,100.00
2022-12-09T07:47:32.642Z,100.00
2022-12-09T07:50:06.239Z,100.00
2022-12-09T07:52:35.022Z,100.00
2022-12-09T07:55:04.750Z,100.00
2022-12-09T07:57:34.752Z,100.00
2022-12-09T08:00:02.916Z,100.00
2022-12-09T08:02:39.695Z,100.00
2022-12-09T08:05:09.062Z,100.00
2022-12-09T08:07:43.697Z,100.00
2022-12-09T08:10:13.982Z,100.00
2022-12-09T08:12:41.886Z,100.00
2022-12-09T08:15:10.874Z,100.00
2022-12-09T08:17:39.528Z,100.00
2022-12-09T08:20:10.486Z,100.00
2022-12-09T08:22:39.110Z,100.00
2022-12-09T08:25:08.343Z,100.00
2022-12-09T08:27:38.113Z,100.00
2022-12-09T08:30:07.895Z,100.00
2022-12-09T08:32:36.486Z,100.00
2022-12-09T08:35:04.860Z,100.00
2022-12-09T08:37:33.334Z,100.00
2022-12-09T08:40:01.023Z,100.00
2022-12-09T08:42:30.702Z,100.00
2022-12-09T08:45:02.433Z,100.00
2022-12-09T08:47:31.299Z,100.00
2022-12-09T08:49:59.372Z,100.00
2022-12-09T08:52:27.575Z,100.00
2022-12-09T08:54:55.591Z,100.00
2022-12-09T08:57:24.372Z,100.00
2022-12-09T08:59:52.511Z,100.00
2022-12-09T09:02:22.014Z,100.00
2022-12-09T09:04:49.933Z,100.00
2022-12-09T09:07:18.577Z,100.00
2022-12-09T09:09:46.522Z,100.00
2022-12-09T09:12:14.778Z,100.00
2022-12-09T09:14:42.723Z,100.00
2022-12-09T09:17:10.542Z,100.00
2022-12-09T09:19:40.077Z,100.00
2022-12-09T09:22:08.063Z,100.00
2022-12-09T09:24:35.836Z,100.00
2022-12-09T09:27:04.158Z,100.00
2022-12-09T09:29:32.422Z,100.00
2022-12-09T09:32:00.307Z,100.00
2022-12-09T09:34:29.186Z,100.00
2022-12-09T09:36:58.710Z,100.00
2022-12-09T09:39:26.576Z,100.00
2022-12-09T09:41:57.185Z,100.00
2022-12-09T09:44:30.359Z,100.00
2022-12-09T09:46:59.515Z,100.00
2022-12-09T09:49:36.767Z,100.00
2022-12-09T09:52:09.488Z,100.00
2022-12-09T09:54:37.949Z,100.00
2022-12-09T09:57:14.261Z,100.00
2022-12-09T09:59:54.038Z,100.00
2022-12-09T10:02:36.690Z,100.00
2022-12-09T10:05:15.741Z,100.00
2022-12-09T10:07:51.576Z,100.00
2022-12-09T10:10:30.559Z,100.00
2022-12-09T10:13:17.608Z,100.00
2022-12-09T10:15:52.976Z,100.00
2022-12-09T10:18:26.016Z,100.00
2022-12-09T10:20:54.753Z,100.00
2022-12-09T10:23:25.205Z,100.00
2022-12-09T10:25:57.783Z,100.00
2022-12-09T10:28:28.459Z,100.00
2022-12-09T10:30:57.570Z,100.00
2022-12-09T10:33:33.339Z,100.00
2022-12-09T10:36:02.154Z,100.00
2022-12-09T10:38:33.036Z,100.00
2022-12-09T10:41:07.341Z,100.00
2022-12-09T10:43:38.665Z,100.00
2022-12-09T10:46:19.235Z,100.00
2022-12-09T10:48:55.932Z,100.00
2022-12-09T10:51:27.219Z,98.82
2022-12-09T10:54:00.023Z,100.00
2022-12-09T10:56:30.259Z,100.00
2022-12-09T10:59:11.620Z,100.00
2022-12-09T11:01:51.065Z,100.00
2022-12-09T11:04:24.112Z,100.00
2022-12-09T11:06:58.781Z,100.00
2022-12-09T11:09:33.305Z,100.00
2022-12-09T11:12:03.398Z,100.00
2022-12-09T11:14:36.079Z,100.00
2022-12-09T11:17:16.710Z,100.00
2022-12-09T11:19:48.955Z,100.00
2022-12-09T11:22:25.002Z,100.00
2022-12-09T11:24:56.719Z,100.00
2022-12-09T11:27:28.173Z,100.00
2022-12-09T11:30:13.160Z,100.00
2022-12-09T11:33:01.085Z,100.00
2022-12-09T11:35:40.272Z,100.00
2022-12-09T11:38:22.360Z,99.23
2022-12-09T11:41:03.806Z,100.00
2022-12-09T11:43:39.157Z,96.97
2022-12-09T11:46:19.046Z,98.10
2022-12-09T11:48:53.657Z,96.40
2022-12-09T11:51:23.734Z,95.14
2022-12-09T11:53:53.392Z,97.32
2022-12-09T11:56:26.600Z,98.07
2022-12-09T11:59:00.541Z,97.42
2022-12-09T12:01:37.140Z,98.42
2022-12-09T12:04:10.245Z,98.78
2022-12-09T12:06:45.723Z,95.43
2022-12-09T12:09:20.375Z,96.04
2022-12-09T12:11:59.025Z,97.39
2022-12-09T12:14:30.507Z,92.46
2022-12-09T12:17:08.556Z,95.26
2022-12-09T12:19:39.299Z,95.09
2022-12-09T12:22:25.634Z,94.97
2022-12-09T12:25:18.513Z,96.08
2022-12-09T12:28:01.186Z,92.75
2022-12-09T12:30:38.728Z,95.17
2022-12-09T12:36:19.241Z,98.06
2022-12-09T12:39:05.677Z,93.74
2022-12-09T12:41:41.197Z,94.64
2022-12-09T12:44:57.491Z,96.64
2022-12-09T12:47:32.460Z,95.03
2022-12-09T12:50:25.471Z,94.29
2022-12-09T12:52:59.353Z,91.27
2022-12-09T12:55:43.763Z,89.90
2022-12-09T12:58:18.131Z,90.05
2022-12-09T13:01:00.433Z,89.04
2022-12-09T13:03:37.375Z,93.49
2022-12-09T13:06:05.841Z,89.81
2022-12-09T13:08:38.086Z,91.74
2022-12-09T13:11:10.379Z,90.44
2022-12-09T13:13:43.546Z,90.69
2022-12-09T13:16:19.869Z,92.33
2022-12-09T13:18:49.943Z,88.55
2022-12-09T13:21:18.478Z,90.60
2022-12-09T13:24:01.442Z,92.92
2022-12-09T13:26:42.280Z,93.45
2022-12-09T13:29:21.295Z,96.42
2022-12-09T13:31:57.907Z,95.65
2022-12-09T13:34:36.550Z,97.37
2022-12-09T13:37:04.395Z,95.85
2022-12-09T13:39:58.779Z,93.72
2022-12-09T13:42:56.381Z,95.46
2022-12-09T13:45:33.295Z,97.10
2022-12-09T13:48:10.638Z,98.68
2022-12-09T13:50:44.060Z,96.31
2022-12-09T13:53:26.820Z,97.11
2022-12-09T13:55:57.558Z,99.84
2022-12-09T13:58:41.383Z,96.56
2022-12-09T14:01:19.645Z,97.01
2022-12-09T14:03:55.481Z,95.34
2022-12-09T14:06:27.420Z,97.28
2022-12-09T14:08:59.671Z,99.18
2022-12-09T14:11:48.434Z,99.11
2022-12-09T14:14:51.671Z,96.76
2022-12-09T14:17:59.874Z,97.00
2022-12-09T14:20:35.247Z,96.73
2022-12-09T14:23:20.924Z,97.80
2022-12-09T14:26:04.449Z,99.45
2022-12-09T14:28:53.489Z,100.00
2022-12-09T14:31:49.029Z,100.00
2022-12-09T14:34:28.436Z,100.00
2022-12-09T14:37:09.615Z,100.00
2022-12-09T14:39:45.993Z,100.00
2022-12-09T14:42:26.927Z,100.00
2022-12-09T14:45:02.685Z,100.00
2022-12-09T14:47:34.000Z,100.00
2022-12-09T14:50:09.722Z,100.00
2022-12-09T14:52:49.672Z,100.00
2022-12-09T14:55:17.941Z,100.00
2022-12-09T14:57:48.089Z,100.00
2022-12-09T15:00:28.633Z,100.00
2022-12-09T15:03:30.743Z,100.00
2022-12-09T15:05:55.155Z,100.00
2022-12-09T15:08:35.465Z,100.00
2022-12-09T15:11:11.145Z,100.00
2022-12-09T15:13:41.675Z,100.00
2022-12-09T15:16:11.363Z,100.00
2022-12-09T15:18:41.283Z,100.00
2022-12-09T15:21:09.314Z,100.00
2022-12-09T15:23:40.040Z,100.00
2022-12-09T15:26:09.699Z,100.00
2022-12-09T15:28:38.387Z,100.00
2022-12-09T15:31:08.261Z,100.00
2022-12-09T15:33:41.371Z,100.00
2022-12-09T15:36:12.399Z,100.00
2022-12-09T15:38:46.318Z,100.00
2022-12-09T15:41:31.941Z,100.00
2022-12-09T15:44:04.606Z,100.00
2022-12-09T15:46:34.869Z,100.00
2022-12-09T15:49:04.004Z,100.00
2022-12-09T15:51:37.360Z,100.00
2022-12-09T15:54:10.890Z,100.00
2022-12-09T15:56:43.264Z,100.00
2022-12-09T15:59:19.227Z,100.00
2022-12-09T16:01:50.017Z,100.00
2022-12-09T16:04:20.233Z,100.00
2022-12-09T16:06:50.054Z,100.00
2022-12-09T16:09:21.391Z,100.00
2022-12-09T16:11:50.959Z,100.00
2022-12-09T16:14:20.773Z,100.00
2022-12-09T16:16:50.818Z,100.00
2022-12-09T16:19:26.615Z,100.00
2022-12-09T16:21:56.542Z,100.00
2022-12-09T16:24:28.235Z,100.00
2022-12-09T16:27:07.348Z,100.00
2022-12-09T16:29:36.889Z,100.00
2022-12-09T16:32:30.281Z,100.00
2022-12-09T16:35:00.189Z,100.00
2022-12-09T16:37:37.847Z,100.00
2022-12-09T16:40:57.330Z,100.00
2022-12-09T16:43:26.839Z,100.00
2022-12-09T16:45:55.796Z,100.00
2022-12-09T16:48:25.763Z,100.00
2022-12-09T16:50:56.801Z,100.00
2022-12-09T16:53:27.074Z,100.00
2022-12-09T16:55:59.615Z,100.00
2022-12-09T16:58:28.102Z,100.00
2022-12-09T17:00:56.607Z,100.00
2022-12-09T17:03:35.587Z,100.00
2022-12-09T17:06:03.263Z,100.00
2022-12-09T17:08:32.039Z,100.00
2022-12-09T17:11:01.237Z,100.00
2022-12-09T17:13:29.003Z,100.00
2022-12-09T17:15:58.427Z,100.00
2022-12-09T17:18:27.210Z,100.00
2022-12-09T17:21:01.439Z,100.00
2022-12-09T17:23:30.083Z,100.00
2022-12-09T17:26:02.666Z,100.00
2022-12-09T17:28:31.155Z,100.00
2022-12-09T17:30:59.652Z,100.00
2022-12-09T17:33:28.259Z,100.00
2022-12-09T17:35:56.314Z,100.00
2022-12-09T17:38:24.167Z,100.00
2022-12-09T17:40:51.840Z,100.00
2022-12-09T17:43:20.829Z,100.00
2022-12-09T17:45:48.514Z,100.00
2022-12-09T17:48:16.172Z,100.00
2022-12-09T17:50:43.794Z,100.00
2022-12-09T17:53:11.411Z,100.00
2022-12-09T17:55:39.837Z,100.00
2022-12-09T17:58:07.541Z,100.00
2022-12-09T18:00:38.866Z,100.00
2022-12-09T18:03:06.530Z,100.00
2022-12-09T18:05:37.423Z,100.00
2022-12-09T18:08:05.706Z,100.00
2022-12-09T18:10:33.962Z,100.00
2022-12-09T18:13:01.662Z,100.00
2022-12-09T18:15:29.329Z,100.00
2022-12-09T18:17:58.647Z,100.00
2022-12-09T18:20:26.283Z,100.00
2022-12-09T18:22:53.927Z,100.00
2022-12-09T18:25:22.102Z,100.00
2022-12-09T18:27:49.725Z,100.00
2022-12-09T18:30:17.396Z,100.00
2022-12-09T18:32:45.075Z,100.00
2022-12-09T18:35:14.180Z,100.00
2022-12-09T18:37:41.825Z,100.00
2022-12-09T18:40:10.896Z,100.00
2022-12-09T18:42:38.539Z,100.00
2022-12-09T18:45:06.935Z,100.00
2022-12-09T18:47:34.554Z,100.00
2022-12-09T18:50:02.178Z,100.00
2022-12-09T18:52:31.241Z,100.00
2022-12-09T18:54:58.875Z,100.00
2022-12-09T18:57:30.733Z,100.00
2022-12-09T18:59:58.741Z,100.00
2022-12-09T19:02:26.623Z,100.00
2022-12-09T19:04:54.367Z,100.00
2022-12-09T19:07:22.055Z,100.00
2022-12-09T19:09:51.060Z,100.00
2022-12-09T19:15:07.580Z,100.00
2022-12-09T19:17:35.313Z,100.00
2022-12-09T19:20:03.055Z,100.00
2022-12-09T19:22:30.763Z,100.00
2022-12-09T19:24:59.736Z,100.00
2022-12-09T19:27:27.787Z,100.00
2022-12-09T19:29:55.423Z,100.00
2022-12-09T19:32:51.373Z,100.00
2022-12-09T19:35:10.749Z,100.00
2022-12-09T19:37:38.408Z,100.00
2022-12-09T19:40:09.284Z,100.00
2022-12-09T19:42:39.645Z,100.00
2022-12-09T19:45:13.659Z,100.00
2022-12-09T19:47:41.922Z,100.00
2022-12-09T19:50:10.245Z,100.00
2022-12-09T19:52:38.192Z,100.00
2022-12-09T19:55:08.660Z,100.00
2022-12-09T19:57:36.377Z,100.00
2022-12-09T20:00:05.185Z,100.00
2022-12-09T20:02:33.039Z,100.00
2022-12-09T20:05:00.708Z,100.00
2022-12-09T20:07:28.339Z,100.00
2022-12-09T20:09:56.080Z,100.00
2022-12-09T20:12:25.037Z,100.00
2022-12-09T20:14:52.680Z,100.00
2022-12-09T20:17:20.403Z,100.00
2022-12-09T20:19:48.194Z,100.00
2022-12-09T20:22:15.858Z,100.00
2022-12-09T20:24:44.136Z,100.00
2022-12-09T20:27:11.895Z,100.00
2022-12-09T20:29:40.991Z,100.00
2022-12-09T20:32:09.896Z,100.00
2022-12-09T20:34:37.730Z,100.00
2022-12-09T20:37:05.773Z,100.00
2022-12-09T20:39:33.613Z,100.00
2022-12-09T20:42:01.323Z,100.00
2022-12-09T20:44:29.096Z,100.00
2022-12-09T20:46:58.063Z,100.00
2022-12-09T20:49:27.533Z,100.00
2022-12-09T20:51:55.973Z,100.00
2022-12-09T20:54:23.938Z,100.00
2022-12-09T20:56:52.930Z,100.00
2022-12-09T20:59:20.594Z,100.00
2022-12-09T21:01:48.325Z,100.00
2022-12-09T21:04:36.292Z,100.00
2022-12-09T21:07:24.204Z,100.00
2022-12-09T21:10:12.111Z,100.00
2022-12-09T21:13:00.143Z,100.00
2022-12-09T21:15:48.138Z,100.00
2022-12-09T21:18:36.867Z,100.00
2022-12-09T21:21:27.875Z,100.00
2022-12-09T21:24:16.697Z,100.00
2022-12-09T21:27:04.721Z,100.00
2022-12-09T21:29:52.616Z,100.00
2022-12-09T21:32:41.644Z,100.00
2022-12-09T21:35:29.561Z,100.00
2022-12-09T21:38:18.834Z,100.00
2022-12-09T21:41:08.481Z,100.00
2022-12-09T21:43:57.777Z,100.00
2022-12-09T21:46:46.062Z,100.00
2022-12-09T21:49:34.232Z,100.00
2022-12-09T21:52:22.199Z,100.00
2022-12-09T21:55:11.731Z,100.00
2022-12-09T21:57:59.697Z,100.00
2022-12-09T22:00:47.922Z,100.00
2022-12-09T22:03:35.929Z,100.00
2022-12-09T22:06:24.144Z,100.00
2022-12-09T22:09:12.618Z,100.00
2022-12-09T22:12:01.951Z,100.00
2022-12-09T22:14:52.015Z,100.00
2022-12-09T22:17:40.262Z,100.00
2022-12-09T22:21:01.142Z,100.00
2022-12-09T22:23:36.200Z,100.00
2022-12-09T22:26:26.064Z,100.00
2022-12-09T22:29:16.936Z,100.00
2022-12-09T22:32:05.110Z,100.00
2022-12-09T22:34:54.509Z,100.00
2022-12-09T22:37:44.062Z,100.00
2022-12-09T22:40:32.423Z,100.00
2022-12-09T22:43:20.447Z,100.00
2022-12-09T22:46:11.772Z,100.00
2022-12-09T22:49:02.757Z,100.00
2022-12-09T22:51:50.736Z,100.00
2022-12-09T22:54:39.115Z,100.00
2022-12-09T22:57:27.041Z,100.00
2022-12-09T23:00:15.924Z,100.00
2022-12-09T23:03:05.419Z,100.00
2022-12-09T23:05:53.454Z,100.00
2022-12-09T23:08:43.300Z,100.00
2022-12-09T23:11:31.546Z,100.00
2022-12-09T23:14:19.850Z,100.00
2022-12-09T23:17:07.794Z,100.00
2022-12-09T23:19:57.484Z,100.00
2022-12-09T23:22:45.719Z,100.00
2022-12-09T23:25:34.234Z,100.00
2022-12-09T23:28:22.193Z,100.00
2022-12-09T23:31:13.389Z,100.00
2022-12-09T23:34:02.400Z,100.00
2022-12-09T23:36:52.143Z,100.00
2022-12-09T23:39:40.324Z,100.00
2022-12-09T23:42:28.277Z,100.00
2022-12-09T23:45:16.217Z,100.00
2022-12-09T23:48:04.213Z,100.00
2022-12-09T23:50:52.151Z,100.00
2022-12-09T23:53:42.266Z,100.00
2022-12-09T23:56:32.293Z,100.00
2022-12-09T23:59:22.613Z,100.00
